Time;durP1;ratioP1;P1;durP2;ratioP2;P2;SDS_P1;SDS_P2;PMS_P1;PMS_P2;Temp;Humidity;BMP_temperature;BMP_pressure;BME280_temperature;BME280_humidity;BME280_pressure;Samples;Min_cycle;Max_cycle;Signal;HPM_P1;HPM_P2
2021/07/15 00:00:49;;;;;;;0.70;0.52;;;19.80;99.90;;;;;;5021396;28;20014;-69
2021/07/15 00:03:20;;;;;;;0.57;0.55;;;19.80;99.90;;;;;;5017236;28;20042;-69
2021/07/15 00:05:46;;;;;;;3.00;0.88;;;19.80;99.90;;;;;;5017174;28;20026;-69
2021/07/15 00:08:15;;;;;;;1.05;0.65;;;19.80;99.90;;;;;;5020073;28;20034;-69
2021/07/15 00:10:45;;;;;;;0.55;0.52;;;19.90;99.90;;;;;;5018856;28;20030;-68
2021/07/15 00:13:13;;;;;;;0.70;0.70;;;19.90;99.90;;;;;;5020933;28;20046;-69
2021/07/15 00:15:44;;;;;;;1.58;1.00;;;19.80;99.90;;;;;;5015130;28;20026;-70
2021/07/15 00:18:10;;;;;;;1.15;0.80;;;19.90;99.90;;;;;;5019914;28;20046;-69
2021/07/15 00:20:39;;;;;;;1.17;0.75;;;19.80;99.90;;;;;;5021020;28;20025;-70
2021/07/15 00:23:05;;;;;;;0.77;0.70;;;19.90;99.90;;;;;;5017492;28;20042;-69
2021/07/15 00:25:31;;;;;;;1.88;0.70;;;19.80;99.90;;;;;;5015474;28;20026;-71
2021/07/15 00:27:58;;;;;;;1.58;1.10;;;19.80;99.90;;;;;;5020742;28;20046;-69
2021/07/15 00:30:23;;;;;;;6.35;0.93;;;19.90;99.90;;;;;;5014630;28;20121;-70
2021/07/15 00:32:49;;;;;;;1.58;0.80;;;19.80;99.90;;;;;;5020594;28;20757;-72
2021/07/15 00:35:14;;;;;;;7.97;1.20;;;19.80;99.90;;;;;;5015648;28;20045;-69
2021/07/15 00:37:44;;;;;;;2.13;1.10;;;19.80;99.90;;;;;;5020017;28;20022;-73
2021/07/15 00:40:13;;;;;;;7.15;1.35;;;19.80;99.90;;;;;;5015046;28;20566;-73
2021/07/15 00:42:39;;;;;;;1.67;0.85;;;19.80;99.90;;;;;;5019664;28;20029;-68
2021/07/15 00:45:07;;;;;;;1.27;0.85;;;19.80;99.90;;;;;;5016318;28;20057;-68
2021/07/15 00:47:33;;;;;;;2.92;1.20;;;19.80;99.90;;;;;;5018029;28;20030;-69
2021/07/15 00:49:59;;;;;;;2.60;1.00;;;19.80;99.90;;;;;;5015077;28;20033;-73
2021/07/15 00:52:25;;;;;;;1.15;0.88;;;19.80;99.90;;;;;;5020517;28;20109;-68
2021/07/15 00:54:51;;;;;;;2.95;1.27;;;19.80;99.90;;;;;;5018938;28;20053;-68
2021/07/15 00:57:17;;;;;;;1.15;1.02;;;19.80;99.90;;;;;;5019074;28;20036;-69
2021/07/15 00:59:43;;;;;;;1.77;1.00;;;19.80;99.90;;;;;;5016524;28;20066;-68
2021/07/15 01:02:09;;;;;;;1.50;1.33;;;19.80;99.90;;;;;;5018076;28;20551;-69
2021/07/15 01:04:35;;;;;;;2.08;1.20;;;19.80;99.90;;;;;;5017066;28;20034;-69
2021/07/15 01:07:00;;;;;;;2.20;1.50;;;19.80;99.90;;;;;;5014818;28;20053;-69
2021/07/15 01:09:27;;;;;;;1.63;1.17;;;19.80;99.90;;;;;;5019009;28;20049;-69
2021/07/15 01:12:29;;;;;;;5.32;1.75;;;19.80;99.90;;;;;;5016148;28;20018;-70
2021/07/15 01:15:16;;;;;;;7.95;1.42;;;19.80;99.90;;;;;;5019045;28;20034;-68
2021/07/15 01:17:53;;;;;;;1.48;0.88;;;19.80;99.90;;;;;;5019946;28;20033;-70
2021/07/15 01:20:43;;;;;;;2.17;1.40;;;19.90;99.90;;;;;;5019011;28;20017;-71
2021/07/15 01:23:45;;;;;;;3.80;1.35;;;19.90;99.90;;;;;;5017444;28;20038;-69
2021/07/15 01:26:49;;;;;;;2.30;1.15;;;19.90;99.90;;;;;;5016085;28;20027;-70
2021/07/15 01:29:43;;;;;;;1.60;0.70;;;19.80;99.90;;;;;;5019333;28;20052;-69
2021/07/15 01:32:09;;;;;;;1.52;0.98;;;19.80;99.90;;;;;;5010430;28;20057;-70
2021/07/15 01:34:37;;;;;;;2.55;1.02;;;19.80;99.90;;;;;;5013720;28;20042;-70
2021/07/15 01:37:04;;;;;;;2.20;1.20;;;19.80;99.90;;;;;;5020763;28;20030;-70
2021/07/15 01:39:34;;;;;;;2.40;1.08;;;19.80;99.90;;;;;;5019005;28;20021;-69
2021/07/15 01:42:08;;;;;;;0.60;0.60;;;19.80;99.90;;;;;;5022322;28;20032;-69
2021/07/15 01:44:34;;;;;;;2.58;0.82;;;19.70;99.90;;;;;;5023261;28;20076;-69
2021/07/15 01:47:01;;;;;;;0.82;0.57;;;19.70;99.90;;;;;;5022941;28;20034;-70
2021/07/15 01:49:27;;;;;;;1.02;0.60;;;19.70;99.90;;;;;;5015881;28;20038;-69
2021/07/15 01:51:54;;;;;;;1.75;0.93;;;19.70;99.90;;;;;;5019951;28;20442;-69
2021/07/15 01:54:21;;;;;;;0.90;0.63;;;19.70;99.90;;;;;;5018858;28;20053;-69
2021/07/15 01:56:47;;;;;;;0.73;0.60;;;19.70;99.90;;;;;;5021523;28;20018;-71
2021/07/15 01:59:18;;;;;;;1.23;0.88;;;19.70;99.90;;;;;;5021581;28;20022;-68
2021/07/15 02:01:46;;;;;;;0.57;0.57;;;19.60;99.90;;;;;;5022431;28;20029;-67
2021/07/15 02:04:13;;;;;;;2.17;1.20;;;19.70;99.90;;;;;;5018187;28;20022;-69
2021/07/15 02:06:42;;;;;;;1.67;0.95;;;19.60;99.90;;;;;;5022406;28;20085;-70
2021/07/15 02:09:11;;;;;;;1.02;0.80;;;19.60;99.90;;;;;;5023717;28;20033;-69
2021/07/15 02:11:38;;;;;;;2.13;1.20;;;19.60;99.90;;;;;;5021047;28;20022;-69
2021/07/15 02:14:07;;;;;;;1.33;0.80;;;19.50;99.90;;;;;;5022201;28;20045;-70
2021/07/15 02:16:36;;;;;;;1.85;0.68;;;19.50;99.90;;;;;;5022749;28;20108;-69
2021/07/15 02:19:04;;;;;;;1.08;0.65;;;19.50;99.90;;;;;;5018541;28;20033;-70
2021/07/15 02:21:33;;;;;;;0.60;0.60;;;19.50;99.90;;;;;;5020185;28;20045;-71
2021/07/15 02:24:04;;;;;;;1.13;0.68;;;19.40;99.90;;;;;;5022610;28;20419;-73
2021/07/15 02:26:30;;;;;;;1.30;1.05;;;19.40;99.90;;;;;;5018809;28;20065;-70
2021/07/15 02:28:56;;;;;;;0.80;0.63;;;19.40;99.90;;;;;;5023291;28;20030;-71
2021/07/15 02:31:29;;;;;;;1.83;1.23;;;19.40;99.90;;;;;;5021313;28;20029;-70
2021/07/15 02:33:59;;;;;;;1.88;0.95;;;19.40;99.90;;;;;;5020340;28;20045;-69
2021/07/15 02:36:28;;;;;;;2.47;1.10;;;19.40;99.90;;;;;;5021672;28;20026;-70
2021/07/15 02:38:56;;;;;;;1.83;1.08;;;19.40;99.90;;;;;;5020704;28;20060;-69
2021/07/15 02:41:22;;;;;;;1.50;1.00;;;19.50;99.90;;;;;;5020696;28;20022;-70
2021/07/15 02:43:48;;;;;;;8.05;1.45;;;19.50;99.90;;;;;;5021464;28;20026;-73
2021/07/15 02:46:15;;;;;;;1.55;0.73;;;19.40;99.90;;;;;;5018272;28;20443;-72
2021/07/15 02:48:40;;;;;;;1.83;1.40;;;19.40;99.90;;;;;;5019887;28;20388;-69
2021/07/15 02:51:06;;;;;;;1.27;1.02;;;19.50;99.90;;;;;;5020118;28;20038;-71
2021/07/15 02:53:32;;;;;;;4.85;1.40;;;19.40;99.90;;;;;;5021274;28;20042;-71
2021/07/15 02:56:33;;;;;;;2.05;1.30;;;19.40;99.90;;;;;;5020204;28;20026;-70
2021/07/15 02:59:25;;;;;;;1.52;1.08;;;19.30;99.90;;;;;;5022417;28;20069;-69
2021/07/15 03:01:57;;;;;;;2.30;1.35;;;19.30;99.90;;;;;;5020759;28;20037;-70
2021/07/15 03:04:32;;;;;;;1.35;1.10;;;19.20;99.90;;;;;;5016762;28;20424;-69
2021/07/15 03:07:00;;;;;;;2.17;1.48;;;19.20;99.90;;;;;;5020625;28;20098;-70
2021/07/15 03:09:28;;;;;;;1.77;0.93;;;19.20;99.90;;;;;;5020226;28;20031;-69
2021/07/15 03:12:00;;;;;;;1.70;1.02;;;19.10;99.90;;;;;;5020811;28;20023;-69
2021/07/15 03:14:37;;;;;;;1.48;1.15;;;19.10;99.90;;;;;;5018398;28;20081;-69
2021/07/15 03:17:07;;;;;;;6.38;0.95;;;19.10;99.90;;;;;;5020118;28;20029;-70
2021/07/15 03:19:34;;;;;;;1.77;1.20;;;19.00;99.90;;;;;;5019779;28;20057;-70
2021/07/15 03:22:02;;;;;;;1.00;0.85;;;19.00;99.90;;;;;;5019727;28;20030;-70
2021/07/15 03:24:30;;;;;;;2.78;1.30;;;19.00;99.90;;;;;;5020514;28;20097;-71
2021/07/15 03:26:58;;;;;;;1.38;0.98;;;19.00;99.90;;;;;;5019853;28;20045;-70
2021/07/15 03:29:24;;;;;;;2.40;1.20;;;18.90;99.90;;;;;;5020884;28;20117;-69
2021/07/15 03:31:52;;;;;;;1.77;1.25;;;18.90;99.90;;;;;;5018806;28;20088;-70
2021/07/15 03:34:18;;;;;;;1.90;1.30;;;18.80;99.90;;;;;;5017980;28;20040;-69
2021/07/15 03:36:49;;;;;;;1.75;1.17;;;18.80;99.90;;;;;;5018291;28;20117;-69
2021/07/15 03:39:17;;;;;;;2.05;1.40;;;18.80;99.90;;;;;;5021989;28;20026;-71
2021/07/15 03:41:45;;;;;;;1.83;1.25;;;18.80;99.90;;;;;;5017317;28;20101;-70
2021/07/15 03:44:11;;;;;;;2.17;1.58;;;18.80;99.90;;;;;;5020090;28;20037;-69
2021/07/15 03:46:37;;;;;;;1.73;1.25;;;18.80;99.90;;;;;;5018748;28;20089;-68
2021/07/15 03:49:04;;;;;;;1.52;1.13;;;18.80;99.90;;;;;;5018077;28;20026;-70
2021/07/15 03:51:34;;;;;;;2.05;1.20;;;18.80;99.90;;;;;;5020934;28;20056;-72
2021/07/15 03:54:00;;;;;;;1.85;1.42;;;18.80;99.90;;;;;;5020699;28;20375;-68
2021/07/15 03:56:27;;;;;;;2.53;1.33;;;18.90;99.90;;;;;;5013721;28;20013;-69
2021/07/15 03:58:55;;;;;;;8.48;1.60;;;18.90;99.90;;;;;;5021839;28;20100;-70
2021/07/15 04:01:22;;;;;;;1.40;1.13;;;18.90;99.90;;;;;;5020687;28;20034;-69
2021/07/15 04:03:53;;;;;;;1.20;1.00;;;18.90;99.90;;;;;;5018496;28;20053;-70
2021/07/15 04:06:22;;;;;;;1.58;1.20;;;19.00;99.90;;;;;;5016001;28;20052;-69
2021/07/15 04:08:48;;;;;;;2.80;1.35;;;19.00;99.90;;;;;;5020174;28;20021;-68
2021/07/15 04:11:16;;;;;;;2.13;1.40;;;19.00;99.90;;;;;;5020151;28;20073;-69
2021/07/15 04:13:43;;;;;;;1.52;1.30;;;19.00;99.90;;;;;;5020379;28;20074;-70
2021/07/15 04:16:14;;;;;;;3.35;2.08;;;19.10;99.90;;;;;;5016468;28;20022;-69
2021/07/15 04:18:42;;;;;;;3.80;1.58;;;19.10;99.90;;;;;;5018204;28;20033;-69
2021/07/15 04:21:09;;;;;;;2.10;1.48;;;19.10;99.90;;;;;;5018191;28;20026;-70
2021/07/15 04:23:36;;;;;;;3.40;1.85;;;19.10;99.90;;;;;;5017087;28;20046;-71
2021/07/15 04:26:03;;;;;;;4.45;2.17;;;19.10;99.90;;;;;;5017659;28;20029;-70
2021/07/15 04:28:29;;;;;;;2.47;1.50;;;19.20;99.90;;;;;;5019473;28;20065;-70
2021/07/15 04:31:01;;;;;;;1.85;1.50;;;19.20;99.90;;;;;;5014435;28;20036;-70
2021/07/15 04:33:28;;;;;;;2.15;1.42;;;19.20;99.90;;;;;;5019546;28;20108;-71
2021/07/15 04:35:56;;;;;;;4.18;1.40;;;19.20;99.90;;;;;;5018141;28;20034;-72
2021/07/15 04:38:22;;;;;;;2.08;1.65;;;19.20;99.90;;;;;;5019142;28;20034;-69
2021/07/15 04:40:50;;;;;;;5.90;1.83;;;19.20;99.90;;;;;;5018213;28;20026;-70
2021/07/15 04:43:16;;;;;;;7.95;2.30;;;19.10;99.90;;;;;;5019043;28;20037;-69
2021/07/15 04:45:43;;;;;;;3.80;1.90;;;19.20;99.90;;;;;;5016574;28;20037;-69
2021/07/15 04:48:09;;;;;;;8.38;2.15;;;19.20;99.90;;;;;;5018892;28;20029;-70
2021/07/15 04:50:36;;;;;;;3.08;1.30;;;19.20;99.90;;;;;;5015687;28;20034;-70
2021/07/15 04:53:08;;;;;;;4.45;2.15;;;19.20;99.90;;;;;;5016822;28;20031;-70
2021/07/15 04:55:35;;;;;;;4.80;2.53;;;19.10;99.90;;;;;;5017410;28;20117;-71
2021/07/15 04:58:03;;;;;;;5.10;1.92;;;19.10;99.90;;;;;;5018530;28;20053;-69
2021/07/15 05:00:29;;;;;;;3.13;1.67;;;19.10;99.90;;;;;;5021123;28;20076;-71
2021/07/15 05:03:08;;;;;;;4.28;2.03;;;19.10;99.90;;;;;;5016331;28;20029;-70
2021/07/15 05:05:34;;;;;;;9.70;1.77;;;19.10;99.90;;;;;;5014625;28;20018;-70
2021/07/15 05:08:00;;;;;;;7.32;2.15;;;19.20;99.90;;;;;;5019630;28;20026;-71
2021/07/15 05:10:26;;;;;;;5.22;2.00;;;19.20;99.90;;;;;;5017910;28;20408;-70
2021/07/15 05:12:51;;;;;;;3.53;1.75;;;19.20;99.90;;;;;;5019462;28;20070;-69
2021/07/15 05:15:17;;;;;;;2.70;1.88;;;19.20;99.90;;;;;;5014407;28;20033;-71
2021/07/15 05:17:43;;;;;;;2.55;1.73;;;19.20;99.90;;;;;;5019025;28;20022;-70
2021/07/15 05:20:09;;;;;;;2.50;1.52;;;19.20;99.90;;;;;;5020478;28;20017;-70
2021/07/15 05:22:36;;;;;;;3.22;1.70;;;19.20;99.90;;;;;;5010402;28;20050;-71
2021/07/15 05:25:03;;;;;;;2.80;1.50;;;19.20;99.90;;;;;;5017161;28;20064;-69
2021/07/15 05:27:30;;;;;;;13.93;3.15;;;19.20;99.90;;;;;;5017837;28;20030;-70
2021/07/15 05:29:56;;;;;;;3.45;1.88;;;19.20;99.90;;;;;;5015941;28;20019;-69
2021/07/15 05:32:21;;;;;;;7.78;1.92;;;19.20;99.90;;;;;;5017210;28;20546;-69
2021/07/15 05:34:47;;;;;;;2.85;1.67;;;19.20;99.90;;;;;;5016362;28;20060;-70
2021/07/15 05:37:13;;;;;;;12.05;1.35;;;19.20;99.90;;;;;;5017766;28;20026;-69
2021/07/15 05:39:39;;;;;;;5.90;1.85;;;19.20;99.90;;;;;;5016650;28;20026;-70
2021/07/15 05:42:05;;;;;;;3.38;1.77;;;19.20;99.90;;;;;;5018798;28;20022;-69
2021/07/15 05:44:31;;;;;;;5.82;2.42;;;19.20;99.90;;;;;;5018125;28;20054;-69
2021/07/15 05:46:57;;;;;;;3.92;1.63;;;19.20;99.90;;;;;;5018223;28;20038;-69
2021/07/15 05:49:22;;;;;;;5.20;2.67;;;19.30;99.90;;;;;;5018667;28;20022;-69
2021/07/15 05:51:49;;;;;;;12.48;2.17;;;19.30;99.90;;;;;;5017885;28;20026;-70
2021/07/15 05:54:16;;;;;;;9.95;2.17;;;19.30;99.90;;;;;;5018939;28;20034;-69
2021/07/15 05:56:42;;;;;;;6.53;3.33;;;19.30;99.90;;;;;;5015922;28;20030;-69
2021/07/15 05:59:07;;;;;;;4.10;2.10;;;19.40;99.90;;;;;;5015625;28;20084;-71
2021/07/15 06:01:33;;;;;;;4.57;2.45;;;19.40;99.90;;;;;;5017075;28;20057;-72
2021/07/15 06:03:59;;;;;;;8.82;2.40;;;19.40;99.90;;;;;;5021446;28;20022;-72
2021/07/15 06:06:25;;;;;;;3.97;2.17;;;19.50;99.90;;;;;;5003333;28;20034;-72
2021/07/15 06:08:53;;;;;;;5.63;1.85;;;19.50;99.90;;;;;;5003638;28;20708;-70
2021/07/15 06:11:19;;;;;;;7.55;1.88;;;19.50;99.90;;;;;;5004245;28;20029;-69
2021/07/15 06:13:44;;;;;;;5.85;3.10;;;19.50;99.90;;;;;;5003838;28;20078;-69
2021/07/15 06:16:10;;;;;;;15.63;2.33;;;19.60;99.90;;;;;;5004286;28;20095;-69
2021/07/15 06:18:35;;;;;;;4.38;2.13;;;19.60;99.90;;;;;;5000579;28;20607;-72
2021/07/15 06:21:01;;;;;;;4.60;2.13;;;19.60;99.90;;;;;;5003405;28;20042;-72
2021/07/15 06:23:27;;;;;;;5.75;2.20;;;19.70;99.90;;;;;;5007940;28;20038;-69
2021/07/15 06:25:52;;;;;;;7.28;2.53;;;19.70;99.90;;;;;;5007552;28;20018;-70
2021/07/15 06:28:18;;;;;;;4.75;2.58;;;19.80;99.90;;;;;;5007970;28;20034;-71
2021/07/15 06:30:43;;;;;;;7.20;2.85;;;19.80;99.90;;;;;;5007820;28;20022;-70
2021/07/15 06:33:09;;;;;;;9.80;2.95;;;19.90;99.90;;;;;;5007956;28;20109;-70
2021/07/15 06:35:40;;;;;;;5.28;2.83;;;19.90;99.90;;;;;;5007374;28;20040;-70
2021/07/15 06:38:06;;;;;;;12.50;3.63;;;20.00;99.90;;;;;;5007982;28;20022;-70
2021/07/15 06:40:32;;;;;;;11.68;3.95;;;20.00;99.90;;;;;;5008003;28;20034;-72
2021/07/15 06:42:57;;;;;;;16.73;4.65;;;20.00;99.90;;;;;;5007932;28;20045;-72
2021/07/15 06:45:23;;;;;;;8.00;3.05;;;20.10;99.90;;;;;;5007718;28;20034;-73
2021/07/15 06:47:49;;;;;;;9.80;3.53;;;20.20;99.90;;;;;;5007997;28;20032;-70
2021/07/15 06:50:15;;;;;;;15.30;5.10;;;20.30;99.90;;;;;;5017808;28;20030;-72
2021/07/15 06:52:42;;;;;;;15.10;4.70;;;20.40;99.90;;;;;;5016774;28;20053;-72
2021/07/15 06:55:08;;;;;;;8.85;4.05;;;20.50;99.90;;;;;;5015602;28;20038;-71
2021/07/15 06:57:38;;;;;;;9.85;4.63;;;20.60;99.90;;;;;;5007551;28;20408;-71
2021/07/15 07:00:08;;;;;;;21.27;5.38;;;20.70;99.90;;;;;;5007232;28;20050;-71
2021/07/15 07:02:38;;;;;;;10.13;5.28;;;20.80;99.90;;;;;;5008068;28;20030;-70
2021/07/15 07:05:05;;;;;;;8.32;4.28;;;20.90;99.90;;;;;;5026899;28;20026;-70
2021/07/15 07:07:30;;;;;;;13.07;5.13;;;20.90;99.90;;;;;;5026922;28;20040;-71
2021/07/15 07:09:56;;;;;;;17.17;4.78;;;21.00;99.90;;;;;;5026331;28;20057;-67
2021/07/15 07:12:21;;;;;;;12.80;5.40;;;21.10;99.90;;;;;;5026748;28;20420;-68
2021/07/15 07:14:47;;;;;;;7.97;4.22;;;21.10;99.90;;;;;;5026761;28;20046;-70
2021/07/15 07:17:12;;;;;;;11.23;4.20;;;21.20;99.90;;;;;;5025945;28;20029;-71
2021/07/15 07:19:38;;;;;;;12.20;4.78;;;21.30;99.90;;;;;;5026117;28;20026;-71
2021/07/15 07:22:04;;;;;;;20.20;6.55;;;21.30;99.90;;;;;;5026325;28;20034;-72
2021/07/15 07:24:29;;;;;;;13.45;5.55;;;21.40;99.90;;;;;;5026779;28;20496;-70
2021/07/15 07:26:55;;;;;;;8.30;4.45;;;21.40;99.90;;;;;;5026891;28;20022;-69
2021/07/15 07:29:20;;;;;;;5.95;3.58;;;21.50;99.90;;;;;;5026595;28;20490;-70
2021/07/15 07:31:46;;;;;;;13.00;5.50;;;21.50;99.90;;;;;;5026016;28;20018;-74
2021/07/15 07:34:12;;;;;;;15.52;4.78;;;21.50;99.90;;;;;;5025340;28;20042;-69
2021/07/15 07:36:37;;;;;;;13.10;5.65;;;21.60;99.90;;;;;;5026156;28;20102;-70
2021/07/15 07:39:04;;;;;;;15.77;5.63;;;21.60;99.90;;;;;;5025427;28;20030;-70
2021/07/15 07:41:32;;;;;;;10.60;4.75;;;21.70;99.90;;;;;;5026319;28;20037;-72
2021/07/15 07:43:58;;;;;;;17.73;5.22;;;21.80;99.90;;;;;;5026474;28;20026;-70
2021/07/15 07:46:24;;;;;;;12.80;5.30;;;21.80;99.90;;;;;;5024952;28;20053;-70
2021/07/15 07:48:49;;;;;;;17.85;5.47;;;21.80;99.90;;;;;;5017144;28;20037;-70
2021/07/15 07:51:19;;;;;;;14.68;5.20;;;21.90;99.90;;;;;;5015314;28;20033;-70
2021/07/15 07:53:45;;;;;;;11.20;6.55;;;21.90;99.90;;;;;;5041307;28;20045;-70
2021/07/15 07:56:11;;;;;;;10.80;5.47;;;21.90;99.90;;;;;;5017953;28;20033;-68
2021/07/15 07:58:37;;;;;;;14.48;6.40;;;22.00;99.90;;;;;;5006236;28;20030;-71
2021/07/15 08:01:03;;;;;;;21.52;8.10;;;22.10;99.90;;;;;;5006415;28;20061;-69
2021/07/15 08:03:29;;;;;;;20.23;8.50;;;22.20;99.90;;;;;;5006524;28;20026;-71
2021/07/15 08:05:55;;;;;;;29.15;8.23;;;22.40;99.90;;;;;;5006319;28;20022;-69
2021/07/15 08:08:22;;;;;;;19.40;7.82;;;22.40;99.90;;;;;;5004930;28;20440;-70
2021/07/15 08:10:48;;;;;;;12.35;5.40;;;22.40;99.90;;;;;;5005749;28;20026;-70
2021/07/15 08:13:14;;;;;;;13.88;6.60;;;22.40;99.90;;;;;;5005500;28;20122;-70
2021/07/15 08:15:39;;;;;;;31.95;8.88;;;22.50;99.90;;;;;;5005839;28;20133;-70
2021/07/15 08:18:09;;;;;;;15.73;7.85;;;22.60;99.90;;;;;;5016665;28;20022;-71
2021/07/15 08:20:36;;;;;;;24.17;9.18;;;22.60;99.90;;;;;;5015564;28;20018;-71
2021/07/15 08:23:02;;;;;;;17.13;7.97;;;22.70;99.90;;;;;;5004404;28;20073;-71
2021/07/15 08:25:27;;;;;;;16.65;7.72;;;22.70;99.90;;;;;;5005809;28;20034;-71
2021/07/15 08:27:56;;;;;;;18.58;8.93;;;22.80;99.90;;;;;;5010704;28;20109;-71
2021/07/15 08:30:22;;;;;;;16.48;8.10;;;22.80;99.90;;;;;;5025156;28;20038;-73
2021/07/15 08:32:48;;;;;;;13.23;6.97;;;22.80;99.90;;;;;;5024169;28;20030;-69
2021/07/15 08:35:14;;;;;;;19.35;8.38;;;22.90;99.90;;;;;;5024451;28;20034;-68
2021/07/15 08:37:39;;;;;;;16.25;6.18;;;22.90;99.90;;;;;;5024319;28;20037;-68
2021/07/15 08:40:07;;;;;;;17.98;8.48;;;22.90;99.90;;;;;;5024639;28;20026;-71
2021/07/15 08:42:34;;;;;;;17.88;8.30;;;23.00;99.90;;;;;;5024602;28;20049;-70
2021/07/15 08:45:04;;;;;;;20.85;8.40;;;23.00;99.90;;;;;;5024798;28;20106;-69
2021/07/15 08:47:30;;;;;;;17.67;8.32;;;22.90;99.90;;;;;;5024391;28;20122;-69
2021/07/15 08:49:56;;;;;;;12.80;7.45;;;22.90;99.90;;;;;;5024725;28;20471;-70
2021/07/15 08:52:22;;;;;;;15.23;6.97;;;22.80;99.90;;;;;;5023164;28;20093;-69
2021/07/15 08:57:33;;;;;;;13.43;7.65;;;22.70;99.90;;;;;;5024428;28;20083;-69
2021/07/15 08:59:59;;;;;;;11.95;6.65;;;22.70;99.90;;;;;;5023410;28;20030;-70
2021/07/15 09:02:24;;;;;;;23.45;8.80;;;22.60;99.90;;;;;;5024630;28;20079;-68
2021/07/15 09:04:51;;;;;;;11.65;6.05;;;22.60;99.90;;;;;;5022155;28;21218;-68
2021/07/15 09:07:17;;;;;;;12.93;6.03;;;22.60;99.90;;;;;;5014362;28;20031;-69
2021/07/15 09:09:46;;;;;;;9.23;4.50;;;22.60;99.90;;;;;;5004398;28;20036;-69
2021/07/15 09:12:13;;;;;;;12.15;4.82;;;22.60;99.90;;;;;;5010654;28;20061;-69
2021/07/15 09:15:06;;;;;;;14.80;6.68;;;22.60;99.90;;;;;;5024102;28;20050;-71
2021/07/15 09:17:35;;;;;;;17.08;7.00;;;22.70;99.90;;;;;;5024402;28;20454;-70
2021/07/15 09:20:05;;;;;;;15.20;6.85;;;22.60;99.90;;;;;;5024455;28;20030;-70
2021/07/15 09:22:33;;;;;;;16.05;7.38;;;22.70;99.90;;;;;;5024379;28;20032;-70
2021/07/15 09:25:03;;;;;;;12.75;5.93;;;22.60;99.90;;;;;;5023859;28;20030;-69
2021/07/15 09:27:31;;;;;;;12.85;5.53;;;22.70;99.90;;;;;;5023451;28;20053;-72
2021/07/15 09:30:08;;;;;;;15.63;6.55;;;22.80;99.90;;;;;;5024748;28;20065;-71
2021/07/15 09:32:49;;;;;;;14.63;7.43;;;22.90;99.90;;;;;;5024476;28;20564;-71
2021/07/15 09:35:26;;;;;;;24.60;7.18;;;23.00;99.90;;;;;;5023933;28;20041;-70
2021/07/15 09:38:10;;;;;;;11.80;6.90;;;23.10;99.90;;;;;;5024330;28;20033;-69
2021/07/15 09:40:51;;;;;;;13.18;5.55;;;23.20;99.90;;;;;;5023289;28;20029;-72
2021/07/15 09:43:25;;;;;;;11.00;5.38;;;23.30;99.90;;;;;;5003777;28;20030;-69
2021/07/15 09:45:53;;;;;;;11.43;5.47;;;23.40;99.90;;;;;;5004726;28;20027;-70
2021/07/15 09:48:21;;;;;;;13.73;5.50;;;23.50;99.90;;;;;;5003080;28;20046;-71
2021/07/15 09:50:49;;;;;;;19.33;6.88;;;23.50;99.90;;;;;;5004711;28;20026;-72
2021/07/15 09:53:27;;;;;;;13.32;5.80;;;23.60;99.90;;;;;;5004385;28;20035;-68
2021/07/15 09:56:08;;;;;;;13.73;6.15;;;23.60;99.90;;;;;;5005918;28;20397;-70
2021/07/15 09:58:37;;;;;;;11.15;5.85;;;23.70;99.90;;;;;;5008488;28;20022;-69
2021/07/15 10:01:06;;;;;;;11.05;5.55;;;23.80;99.90;;;;;;5008580;28;20041;-68
2021/07/15 10:03:45;;;;;;;10.60;5.68;;;23.80;99.90;;;;;;5008394;28;20029;-70
2021/07/15 10:06:12;;;;;;;10.10;4.88;;;23.70;99.90;;;;;;5008459;28;20038;-68
2021/07/15 10:09:01;;;;;;;11.75;5.38;;;23.70;99.90;;;;;;5008396;28;20524;-71
2021/07/15 10:11:29;;;;;;;11.88;5.93;;;23.60;99.90;;;;;;5026056;28;20126;-69
2021/07/15 10:14:06;;;;;;;11.30;5.68;;;23.50;99.90;;;;;;5009300;28;20054;-69
2021/07/15 10:16:38;;;;;;;13.88;6.95;;;23.40;99.90;;;;;;5020301;28;20030;-73
2021/07/15 10:19:06;;;;;;;10.10;5.18;;;23.30;99.90;;;;;;5027474;28;20037;-72
2021/07/15 10:21:33;;;;;;;10.68;4.95;;;23.30;99.90;;;;;;5028001;28;20069;-73
2021/07/15 10:24:21;;;;;;;11.57;4.43;;;23.30;99.90;;;;;;5017987;28;20045;-70
2021/07/15 10:26:49;;;;;;;10.20;4.43;;;23.30;99.90;;;;;;5007906;28;20022;-71
2021/07/15 10:29:15;;;;;;;12.60;5.03;;;23.30;99.90;;;;;;5007898;28;20026;-71
2021/07/15 10:31:42;;;;;;;13.82;5.38;;;23.30;99.90;;;;;;5008006;28;20069;-70
2021/07/15 10:34:10;;;;;;;16.17;7.20;;;23.30;99.90;;;;;;5037839;28;20038;-75
2021/07/15 10:36:38;;;;;;;15.65;6.70;;;23.30;99.90;;;;;;5027529;28;20026;-68
2021/07/15 10:39:07;;;;;;;22.73;5.85;;;23.40;99.90;;;;;;5026714;28;20026;-71
2021/07/15 10:41:35;;;;;;;11.25;5.65;;;23.40;99.90;;;;;;5027039;28;20449;-71
2021/07/15 10:44:01;;;;;;;9.15;5.55;;;23.50;99.90;;;;;;5027075;28;20022;-71
2021/07/15 10:46:28;;;;;;;10.38;6.57;;;23.40;99.90;;;;;;5027407;28;20084;-68
2021/07/15 10:48:55;;;;;;;15.10;7.22;;;23.40;99.90;;;;;;5026901;28;20440;-69
2021/07/15 10:51:20;;;;;;;13.15;6.35;;;23.40;99.90;;;;;;5026963;28;20095;-70
2021/07/15 10:53:47;;;;;;;14.32;6.40;;;23.40;99.90;;;;;;5027105;28;20066;-67
2021/07/15 10:56:18;;;;;;;13.73;6.90;;;23.40;99.90;;;;;;5027215;28;20105;-68
2021/07/15 10:58:48;;;;;;;14.02;6.63;;;23.40;99.90;;;;;;5027036;28;20052;-68
2021/07/15 11:01:42;;;;;;;18.48;7.57;;;23.50;99.90;;;;;;5026854;28;20514;-68
2021/07/15 11:04:12;;;;;;;12.52;6.93;;;23.50;99.90;;;;;;5027017;28;20049;-67
2021/07/15 11:06:52;;;;;;;12.07;6.63;;;23.60;99.90;;;;;;5025882;28;20032;-68
2021/07/15 11:09:23;;;;;;;22.33;8.15;;;23.80;99.90;;;;;;5024793;28;20034;-70
2021/07/15 11:11:51;;;;;;;14.25;7.90;;;23.90;99.90;;;;;;5024974;28;20029;-70
2021/07/15 11:14:41;;;;;;;15.10;7.32;;;24.10;99.90;;;;;;5024957;28;20034;-68
2021/07/15 11:17:21;;;;;;;14.18;7.72;;;24.30;99.90;;;;;;5025078;28;20029;-68
2021/07/15 11:20:02;;;;;;;18.10;7.28;;;24.40;99.90;;;;;;5025423;28;20034;-69
2021/07/15 11:22:45;;;;;;;17.23;7.93;;;24.50;99.90;;;;;;5025088;28;20022;-72
2021/07/15 11:25:17;;;;;;;14.23;8.05;;;24.60;99.90;;;;;;5022834;28;20097;-68
2021/07/15 11:27:51;;;;;;;17.35;9.27;;;24.70;99.90;;;;;;5006917;28;20022;-69
2021/07/15 11:30:40;;;;;;;12.77;7.55;;;24.90;99.90;;;;;;5007102;28;20037;-71
2021/07/15 11:33:19;;;;;;;13.10;6.00;;;25.10;99.90;;;;;;5006991;28;20085;-69
2021/07/15 11:35:53;;;;;;;16.58;8.23;;;25.50;99.90;;;;;;5006672;28;20065;-72
2021/07/15 11:38:35;;;;;;;16.80;6.68;;;25.70;99.90;;;;;;5014901;28;20064;-72
2021/07/15 11:41:06;;;;;;;13.43;7.43;;;25.70;99.90;;;;;;5016693;28;20057;-69
2021/07/15 11:43:53;;;;;;;16.40;8.75;;;25.70;99.90;;;;;;5005317;28;20085;-69
2021/07/15 11:46:23;;;;;;;21.83;8.88;;;25.70;99.90;;;;;;5006519;28;20053;-71
2021/07/15 11:48:56;;;;;;;21.73;8.15;;;25.70;99.90;;;;;;5004272;28;20445;-70
2021/07/15 11:51:33;;;;;;;17.23;7.95;;;25.50;99.90;;;;;;5004200;28;20029;-69
2021/07/15 11:54:13;;;;;;;15.45;6.95;;;25.50;99.90;;;;;;5005530;28;20065;-69
2021/07/15 11:56:42;;;;;;;20.17;7.45;;;25.40;99.90;;;;;;5005821;28;20045;-70
2021/07/15 11:59:09;;;;;;;14.85;7.30;;;25.30;99.90;;;;;;5005423;28;20030;-70
2021/07/15 12:01:36;;;;;;;13.73;6.32;;;25.30;99.90;;;;;;5030527;28;20030;-69
2021/07/15 12:04:06;;;;;;;12.98;5.55;;;25.30;99.90;;;;;;5023317;28;20050;-69
2021/07/15 12:06:37;;;;;;;11.02;5.93;;;25.30;99.90;;;;;;5026057;28;20108;-70
2021/07/15 12:09:11;;;;;;;14.48;7.05;;;25.40;99.90;;;;;;5025779;28;20539;-71
2021/07/15 12:11:39;;;;;;;16.25;6.60;;;25.50;99.90;;;;;;5025571;28;20037;-71
2021/07/15 12:14:05;;;;;;;13.25;7.35;;;25.50;99.90;;;;;;5024160;28;20053;-71
2021/07/15 12:16:34;;;;;;;12.15;6.70;;;25.70;99.90;;;;;;5026129;28;20036;-71
2021/07/15 12:19:08;;;;;;;18.27;8.13;;;26.10;99.90;;;;;;5024591;28;20028;-72
2021/07/15 12:21:34;;;;;;;;;;;26.30;99.90;;;;;;5026398;28;20049;-71
2021/07/15 12:24:13;;;;;;;12.73;6.47;;;26.60;99.90;;;;;;5025847;28;19910;-70
2021/07/15 12:26:40;;;;;;;9.40;5.57;;;27.10;99.90;;;;;;5025484;28;20064;-70
2021/07/15 12:29:11;;;;;;;13.32;7.20;;;27.50;99.90;;;;;;5025679;28;20025;-70
2021/07/15 12:31:36;;;;;;;17.10;7.05;;;27.90;99.90;;;;;;5025939;28;20026;-72
2021/07/15 12:34:11;;;;;;;12.02;6.40;;;28.20;99.90;;;;;;5025580;28;20042;-70
2021/07/15 12:36:40;;;;;;;14.80;6.30;;;28.60;99.90;;;;;;5025455;28;20072;-70
2021/07/15 12:39:09;;;;;;;12.50;6.05;;;29.00;99.90;;;;;;5024951;28;20026;-71
2021/07/15 12:41:39;;;;;;;12.10;6.05;;;29.00;99.90;;;;;;5024529;28;20037;-70
2021/07/15 12:44:14;;;;;;;11.98;6.43;;;28.80;99.90;;;;;;5005442;28;20030;-70
2021/07/15 12:46:45;;;;;;;10.73;5.63;;;28.70;99.90;;;;;;5022807;28;20085;-68
2021/07/15 12:49:17;;;;;;;12.90;5.85;;;29.00;99.90;;;;;;5015991;28;20106;-70
2021/07/15 12:51:43;;;;;;;10.52;5.65;;;29.10;99.90;;;;;;5005315;28;20033;-69
2021/07/15 12:54:40;;;;;;;12.75;6.10;;;28.90;99.90;;;;;;5006834;28;20030;-72
2021/07/15 12:57:08;;;;;;;9.30;4.97;;;28.70;99.90;;;;;;5018937;28;20442;-70